createdAt,value
2019-02-18T00:00:30.883Z,1013.49
2019-02-18T00:01:05.975Z,1013.46
2019-02-18T00:01:41.191Z,1013.49
2019-02-18T00:02:16.632Z,1013.46
2019-02-18T00:02:52.066Z,1013.48
2019-02-18T00:03:27.437Z,1013.48
2019-02-18T00:04:03.020Z,1013.46
2019-02-18T00:04:38.345Z,1013.46
2019-02-18T00:05:13.918Z,1013.45
2019-02-18T00:05:49.319Z,1013.46
2019-02-18T00:06:24.928Z,1013.45
2019-02-18T00:07:00.151Z,1013.44
2019-02-18T00:07:35.677Z,1013.43
2019-02-18T00:08:10.948Z,1013.46
2019-02-18T00:08:46.519Z,1013.45
2019-02-18T00:09:21.802Z,1013.48
2019-02-18T00:09:57.027Z,1013.47
2019-02-18T00:10:32.109Z,1013.48
2019-02-18T00:11:07.427Z,1013.47
2019-02-18T00:11:42.634Z,1013.49
2019-02-18T00:12:18.055Z,1013.54
2019-02-18T00:12:53.580Z,1013.48
2019-02-18T00:13:29.098Z,1013.53
2019-02-18T00:14:04.675Z,1013.50
2019-02-18T00:14:40.108Z,1013.52
2019-02-18T00:15:15.497Z,1013.51
2019-02-18T00:15:50.907Z,1013.53
2019-02-18T00:16:26.722Z,1013.50
2019-02-18T00:17:02.208Z,1013.48
2019-02-18T00:17:37.525Z,1013.49
2019-02-18T00:18:13.147Z,1013.48
2019-02-18T00:18:48.265Z,1013.48
2019-02-18T00:19:23.348Z,1013.49
2019-02-18T00:19:58.786Z,1013.49
2019-02-18T00:20:33.964Z,1013.47
2019-02-18T00:21:09.489Z,1013.50
2019-02-18T00:21:44.888Z,1013.47
2019-02-18T00:22:21.602Z,1013.50
2019-02-18T00:22:55.334Z,1013.48
2019-02-18T00:23:30.675Z,1013.48
2019-02-18T00:24:06.199Z,1013.45
2019-02-18T00:24:41.311Z,1013.44
2019-02-18T00:25:16.626Z,1013.50
2019-02-18T00:25:52.041Z,1013.46
2019-02-18T00:26:27.363Z,1013.48
2019-02-18T00:27:02.971Z,1013.46
2019-02-18T00:27:38.284Z,1013.45
2019-02-18T00:28:13.471Z,1013.45
2019-02-18T00:28:48.630Z,1013.47
2019-02-18T00:29:23.722Z,1013.44
2019-02-18T00:29:58.855Z,1013.45
2019-02-18T00:30:34.440Z,1013.46
2019-02-18T00:31:10.025Z,1013.46
2019-02-18T00:31:45.285Z,1013.45
2019-02-18T00:32:20.683Z,1013.45
2019-02-18T00:32:56.023Z,1013.46
2019-02-18T00:33:31.387Z,1013.46
2019-02-18T00:34:06.621Z,1013.42
2019-02-18T00:34:41.941Z,1013.45
2019-02-18T00:35:17.138Z,1013.44
2019-02-18T00:35:52.453Z,1013.44
2019-02-18T00:36:27.734Z,1013.43
2019-02-18T00:37:03.054Z,1013.41
2019-02-18T00:37:38.262Z,1013.43
2019-02-18T00:38:13.607Z,1013.43
2019-02-18T00:38:48.837Z,1013.44
2019-02-18T00:39:24.219Z,1013.45
2019-02-18T00:39:59.913Z,1013.45
2019-02-18T00:40:35.212Z,1013.44
2019-02-18T00:41:10.518Z,1013.42
2019-02-18T00:41:45.828Z,1013.41
2019-02-18T00:42:21.517Z,1013.44
2019-02-18T00:42:56.935Z,1013.43
2019-02-18T00:43:32.262Z,1013.45
2019-02-18T00:44:07.769Z,1013.45
2019-02-18T00:44:43.002Z,1013.46
2019-02-18T00:45:18.119Z,1013.49
2019-02-18T00:45:53.434Z,1013.45
2019-02-18T00:46:28.710Z,1013.44
2019-02-18T00:47:03.923Z,1013.47
2019-02-18T00:47:39.225Z,1013.42
2019-02-18T00:48:14.641Z,1013.44
2019-02-18T00:48:50.267Z,1013.47
2019-02-18T00:49:25.465Z,1013.41
2019-02-18T00:50:00.924Z,1013.45
2019-02-18T00:50:36.207Z,1013.42
2019-02-18T00:51:11.920Z,1013.43
2019-02-18T00:51:47.237Z,1013.45
2019-02-18T00:52:22.362Z,1013.42
2019-02-18T00:52:57.790Z,1013.44
2019-02-18T00:53:33.162Z,1013.43
2019-02-18T00:54:08.308Z,1013.42
2019-02-18T00:54:43.498Z,1013.42
2019-02-18T00:55:18.971Z,1013.45
2019-02-18T00:55:54.353Z,1013.44
2019-02-18T00:56:29.981Z,1013.40
2019-02-18T00:57:05.306Z,1013.42
2019-02-18T00:57:40.818Z,1013.41
2019-02-18T00:58:16.036Z,1013.43
2019-02-18T00:58:51.323Z,1013.47
2019-02-18T00:59:26.532Z,1013.42
2019-02-18T01:00:01.713Z,1013.42
2019-02-18T01:00:37.172Z,1013.43
2019-02-18T01:01:12.698Z,1013.42
2019-02-18T01:01:47.989Z,1013.43
2019-02-18T01:02:23.315Z,1013.44
2019-02-18T01:02:58.992Z,1013.42
2019-02-18T01:03:34.108Z,1013.43
2019-02-18T01:04:09.199Z,1013.48
2019-02-18T01:04:44.731Z,1013.47
2019-02-18T01:05:20.020Z,1013.49
2019-02-18T01:05:55.664Z,1013.49
2019-02-18T01:06:30.752Z,1013.51
2019-02-18T01:07:05.987Z,1013.48
2019-02-18T01:07:41.411Z,1013.52
2019-02-18T01:08:17.011Z,1013.52
2019-02-18T01:08:52.310Z,1013.53
2019-02-18T01:09:27.525Z,1013.54
2019-02-18T01:10:02.922Z,1013.50
2019-02-18T01:10:38.345Z,1013.51
2019-02-18T01:11:13.760Z,1013.51
2019-02-18T01:11:48.948Z,1013.53
2019-02-18T01:12:24.047Z,1013.51
2019-02-18T01:12:59.337Z,1013.51
2019-02-18T01:13:34.871Z,1013.48
2019-02-18T01:14:10.151Z,1013.47
2019-02-18T01:14:45.575Z,1013.46
2019-02-18T01:15:20.889Z,1013.47
2019-02-18T01:15:55.991Z,1013.51
2019-02-18T01:16:31.263Z,1013.51
2019-02-18T01:17:06.458Z,1013.47
2019-02-18T01:17:42.092Z,1013.51
2019-02-18T01:18:17.514Z,1013.48
2019-02-18T01:18:52.992Z,1013.48
2019-02-18T01:19:28.395Z,1013.48
2019-02-18T01:20:03.601Z,1013.45
2019-02-18T01:20:38.812Z,1013.45
2019-02-18T01:21:14.301Z,1013.46
2019-02-18T01:21:49.650Z,1013.44
2019-02-18T01:22:24.859Z,1013.45
2019-02-18T01:23:00.249Z,1013.41
2019-02-18T01:23:35.571Z,1013.44
2019-02-18T01:24:10.959Z,1013.43
2019-02-18T01:24:46.479Z,1013.46
2019-02-18T01:25:21.708Z,1013.46
2019-02-18T01:25:57.101Z,1013.43
2019-02-18T01:26:32.414Z,1013.44
2019-02-18T01:27:07.842Z,1013.43
2019-02-18T01:27:43.146Z,1013.42
2019-02-18T01:28:18.645Z,1013.44
2019-02-18T01:28:54.253Z,1013.44
2019-02-18T01:29:29.859Z,1013.44
2019-02-18T01:30:05.042Z,1013.40
2019-02-18T01:30:40.471Z,1013.43
2019-02-18T01:31:15.549Z,1013.42
2019-02-18T01:31:50.763Z,1013.39
2019-02-18T01:32:26.097Z,1013.37
2019-02-18T01:33:01.503Z,1013.42
2019-02-18T01:33:36.919Z,1013.40
2019-02-18T01:34:12.208Z,1013.41
2019-02-18T01:34:47.506Z,1013.42
2019-02-18T01:35:22.835Z,1013.42
2019-02-18T01:35:58.040Z,1013.43
2019-02-18T01:36:33.466Z,1013.42
2019-02-18T01:37:08.965Z,1013.44
2019-02-18T01:37:46.167Z,1013.44
2019-02-18T01:38:20.000Z,1013.38
2019-02-18T01:38:55.491Z,1013.39
2019-02-18T01:39:30.906Z,1013.43
2019-02-18T01:40:06.223Z,1013.41
2019-02-18T01:40:41.637Z,1013.40
2019-02-18T01:41:16.908Z,1013.41
2019-02-18T01:41:52.320Z,1013.39
2019-02-18T01:42:27.500Z,1013.40
2019-02-18T01:43:03.142Z,1013.43
2019-02-18T01:43:39.539Z,1013.38
2019-02-18T01:44:14.843Z,1013.37
2019-02-18T01:44:50.264Z,1013.35
2019-02-18T01:45:25.560Z,1013.36
2019-02-18T01:46:00.769Z,1013.37
2019-02-18T01:46:35.863Z,1013.35
2019-02-18T01:47:11.559Z,1013.34
2019-02-18T01:47:47.083Z,1013.31
2019-02-18T01:48:22.431Z,1013.33
2019-02-18T01:48:57.545Z,1013.29
2019-02-18T01:49:32.919Z,1013.30
2019-02-18T01:50:08.437Z,1013.31
2019-02-18T01:50:43.937Z,1013.31
2019-02-18T01:51:19.143Z,1013.30
2019-02-18T01:51:54.453Z,1013.28
2019-02-18T01:52:29.789Z,1013.30
2019-02-18T01:53:05.202Z,1013.30
2019-02-18T01:53:40.512Z,1013.31
2019-02-18T01:54:15.935Z,1013.30
2019-02-18T01:54:51.479Z,1013.32
2019-02-18T01:55:26.979Z,1013.27
2019-02-18T01:56:03.022Z,1013.29
2019-02-18T01:56:38.206Z,1013.28
2019-02-18T01:57:13.621Z,1013.29
2019-02-18T01:57:48.907Z,1013.27
2019-02-18T01:58:24.218Z,1013.29
2019-02-18T01:58:59.956Z,1013.27
2019-02-18T01:59:35.344Z,1013.27
2019-02-18T02:00:11.004Z,1013.26
2019-02-18T02:00:46.185Z,1013.24
2019-02-18T02:01:21.731Z,1013.22
2019-02-18T02:01:56.936Z,1013.23
2019-02-18T02:02:32.265Z,1013.22
2019-02-18T02:03:07.889Z,1013.20
2019-02-18T02:03:43.192Z,1013.22
2019-02-18T02:04:18.751Z,1013.22
2019-02-18T02:04:54.193Z,1013.25
2019-02-18T02:05:29.427Z,1013.22
2019-02-18T02:06:04.852Z,1013.22
2019-02-18T02:06:40.252Z,1013.22
2019-02-18T02:07:15.678Z,1013.24
2019-02-18T02:07:56.238Z,1013.23
2019-02-18T02:08:26.592Z,1013.19
2019-02-18T02:09:01.805Z,1013.21
2019-02-18T02:09:37.956Z,1013.17
2019-02-18T02:10:13.039Z,1013.21
2019-02-18T02:10:48.567Z,1013.22
2019-02-18T02:11:24.091Z,1013.23
2019-02-18T02:11:59.411Z,1013.23
2019-02-18T02:12:34.999Z,1013.23
2019-02-18T02:13:10.434Z,1013.22
2019-02-18T02:13:45.926Z,1013.22
2019-02-18T02:14:21.433Z,1013.22
2019-02-18T02:14:56.655Z,1013.21
2019-02-18T02:15:32.166Z,1013.26
2019-02-18T02:16:07.649Z,1013.22
2019-02-18T02:16:43.662Z,1013.23
2019-02-18T02:17:19.187Z,1013.19
2019-02-18T02:17:54.383Z,1013.21
2019-02-18T02:18:29.832Z,1013.18
2019-02-18T02:19:05.125Z,1013.21
2019-02-18T02:19:40.640Z,1013.18
2019-02-18T02:20:16.057Z,1013.20
2019-02-18T02:20:51.573Z,1013.17
2019-02-18T02:21:26.886Z,1013.10
2019-02-18T02:22:02.389Z,1013.12
2019-02-18T02:22:37.726Z,1013.14
2019-02-18T02:23:12.998Z,1013.15
2019-02-18T02:23:48.534Z,1013.11
2019-02-18T02:24:23.923Z,1013.15
2019-02-18T02:24:59.014Z,1013.16
2019-02-18T02:25:34.543Z,1013.11
2019-02-18T02:26:10.248Z,1013.15
2019-02-18T02:26:45.452Z,1013.15
2019-02-18T02:27:20.985Z,1013.13
2019-02-18T02:27:56.269Z,1013.11
2019-02-18T02:28:31.560Z,1013.09
2019-02-18T02:29:07.535Z,1013.14
2019-02-18T02:29:42.753Z,1013.08
2019-02-18T02:30:18.130Z,1013.11
2019-02-18T02:30:53.475Z,1013.10
2019-02-18T02:31:28.669Z,1013.07
2019-02-18T02:32:04.357Z,1013.08
2019-02-18T02:32:39.567Z,1013.10
2019-02-18T02:33:14.749Z,1013.09
2019-02-18T02:33:50.048Z,1013.04
2019-02-18T02:34:25.243Z,1013.07
2019-02-18T02:35:00.637Z,1013.09
2019-02-18T02:35:35.967Z,1013.10
2019-02-18T02:36:11.174Z,1013.09
2019-02-18T02:36:46.482Z,1013.05
2019-02-18T02:37:21.673Z,1013.08
2019-02-18T02:38:07.047Z,1013.10
2019-02-18T02:38:32.114Z,1013.09
2019-02-18T02:39:07.400Z,1013.16
2019-02-18T02:39:42.806Z,1013.11
2019-02-18T02:40:18.109Z,1013.06
2019-02-18T02:40:53.555Z,1013.09
2019-02-18T02:41:28.966Z,1013.07
2019-02-18T02:42:04.489Z,1013.08
2019-02-18T02:42:39.896Z,1013.08
2019-02-18T02:43:15.208Z,1013.09
2019-02-18T02:43:50.411Z,1013.08
2019-02-18T02:44:25.899Z,1013.08
2019-02-18T02:45:01.325Z,1013.08
2019-02-18T02:45:36.686Z,1013.07
2019-02-18T02:46:12.096Z,1013.08
2019-02-18T02:46:47.648Z,1013.07
2019-02-18T02:47:22.831Z,1013.08
2019-02-18T02:47:58.353Z,1013.09
2019-02-18T02:48:33.657Z,1013.08
2019-02-18T02:49:09.158Z,1013.10
2019-02-18T02:49:44.442Z,1013.13
2019-02-18T02:50:19.644Z,1013.10
2019-02-18T02:50:55.039Z,1013.09
2019-02-18T02:51:30.376Z,1013.11
2019-02-18T02:52:05.704Z,1013.08
2019-02-18T02:52:41.225Z,1013.09
2019-02-18T02:53:16.314Z,1013.08
2019-02-18T02:53:51.524Z,1013.06
2019-02-18T02:54:26.935Z,1013.09
2019-02-18T02:55:02.458Z,1013.08
2019-02-18T02:55:37.655Z,1013.08
2019-02-18T02:56:13.262Z,1013.07
2019-02-18T02:56:48.755Z,1013.05
2019-02-18T02:57:23.996Z,1013.07
2019-02-18T02:57:59.287Z,1013.06
2019-02-18T02:58:34.705Z,1013.05
2019-02-18T02:59:10.302Z,1013.03
2019-02-18T02:59:45.516Z,1013.02
2019-02-18T03:00:20.790Z,1013.04
2019-02-18T03:00:56.105Z,1013.04
2019-02-18T03:01:31.298Z,1013.06
2019-02-18T03:02:06.608Z,1013.03
2019-02-18T03:02:41.928Z,1013.05
2019-02-18T03:03:17.526Z,1013.02
2019-02-18T03:03:52.718Z,1013.00
2019-02-18T03:04:28.228Z,1013.02
2019-02-18T03:05:03.635Z,1013.05
2019-02-18T03:05:38.735Z,1013.06
2019-02-18T03:06:13.954Z,1013.02
2019-02-18T03:06:49.546Z,1013.01
2019-02-18T03:07:24.666Z,1013.04
2019-02-18T03:07:59.983Z,1012.99
2019-02-18T03:08:35.222Z,1013.03
2019-02-18T03:09:11.005Z,1013.04
2019-02-18T03:09:46.083Z,1012.99
2019-02-18T03:10:21.185Z,1013.02
2019-02-18T03:10:56.560Z,1013.01
2019-02-18T03:11:31.779Z,1013.01
2019-02-18T03:12:07.006Z,1013.00
2019-02-18T03:12:42.196Z,1013.03
2019-02-18T03:13:17.540Z,1013.01
2019-02-18T03:13:53.021Z,1013.06
2019-02-18T03:14:28.734Z,1013.00
2019-02-18T03:15:04.336Z,1013.02
2019-02-18T03:15:39.670Z,1013.02
2019-02-18T03:16:15.075Z,1013.02
2019-02-18T03:16:50.464Z,1013.02
2019-02-18T03:17:25.881Z,1013.03
2019-02-18T03:18:01.560Z,1013.04
2019-02-18T03:18:37.195Z,1013.03
2019-02-18T03:19:12.681Z,1013.03
2019-02-18T03:19:47.992Z,1013.02
2019-02-18T03:20:23.401Z,1013.02
2019-02-18T03:20:58.579Z,1013.01
2019-02-18T03:21:34.092Z,1013.00
2019-02-18T03:22:09.476Z,1013.00
2019-02-18T03:22:44.893Z,1012.96
2019-02-18T03:23:20.413Z,1013.01
2019-02-18T03:23:55.705Z,1012.99
2019-02-18T03:24:30.811Z,1012.98
2019-02-18T03:25:06.087Z,1012.97
2019-02-18T03:25:41.480Z,1012.97
2019-02-18T03:26:17.115Z,1012.99
2019-02-18T03:26:52.428Z,1012.99
2019-02-18T03:27:27.833Z,1012.97
2019-02-18T03:28:03.514Z,1012.96
2019-02-18T03:28:38.852Z,1012.97
2019-02-18T03:29:14.153Z,1012.93
2019-02-18T03:29:49.175Z,1012.94
2019-02-18T03:30:24.413Z,1012.90
2019-02-18T03:30:59.709Z,1012.93
2019-02-18T03:31:34.902Z,1012.90
2019-02-18T03:32:10.188Z,1012.91
2019-02-18T03:32:45.497Z,1012.91
2019-02-18T03:33:21.099Z,1012.91
2019-02-18T03:33:56.214Z,1012.89
2019-02-18T03:34:31.866Z,1012.87
2019-02-18T03:35:07.846Z,1012.90
2019-02-18T03:35:43.047Z,1012.89
2019-02-18T03:36:18.429Z,1012.89
2019-02-18T03:36:53.631Z,1012.93
2019-02-18T03:37:28.710Z,1012.92
2019-02-18T03:38:04.126Z,1012.91
2019-02-18T03:38:39.325Z,1012.92
2019-02-18T03:39:14.662Z,1012.94
2019-02-18T03:39:50.173Z,1012.92
2019-02-18T03:40:25.565Z,1012.93
2019-02-18T03:41:03.376Z,1012.93
2019-02-18T03:41:36.192Z,1012.96
2019-02-18T03:42:11.382Z,1012.99
2019-02-18T03:42:46.595Z,1012.95
2019-02-18T03:43:21.785Z,1012.98
2019-02-18T03:43:57.007Z,1012.97
2019-02-18T03:44:32.339Z,1012.98
2019-02-18T03:45:07.954Z,1013.01
2019-02-18T03:45:43.255Z,1012.99
2019-02-18T03:46:18.859Z,1013.00
2019-02-18T03:46:54.359Z,1013.01
2019-02-18T03:47:29.468Z,1013.02
2019-02-18T03:48:04.783Z,1013.02
2019-02-18T03:48:39.797Z,1013.00
2019-02-18T03:49:15.394Z,1012.98
2019-02-18T03:49:50.521Z,1013.00
2019-02-18T03:50:26.068Z,1013.03
2019-02-18T03:51:01.545Z,1013.02
2019-02-18T03:51:37.046Z,1012.99
2019-02-18T03:52:12.352Z,1013.00
2019-02-18T03:52:48.076Z,1013.03
2019-02-18T03:53:23.458Z,1013.01
2019-02-18T03:53:58.658Z,1013.06
2019-02-18T03:54:33.963Z,1013.05
2019-02-18T03:55:09.416Z,1013.03
2019-02-18T03:55:44.695Z,1013.04
2019-02-18T03:56:20.110Z,1013.07
2019-02-18T03:56:55.412Z,1013.07
2019-02-18T03:57:30.810Z,1013.07
2019-02-18T03:58:06.113Z,1013.08
2019-02-18T03:58:41.399Z,1013.08
2019-02-18T03:59:16.822Z,1013.09
2019-02-18T03:59:52.315Z,1013.08
2019-02-18T04:00:27.557Z,1013.06
2019-02-18T04:01:02.787Z,1013.07
2019-02-18T04:01:38.261Z,1013.05
2019-02-18T04:02:13.588Z,1013.10
2019-02-18T04:02:48.887Z,1013.05
2019-02-18T04:03:24.191Z,1013.06
2019-02-18T04:03:59.273Z,1013.07
2019-02-18T04:04:34.580Z,1013.07
2019-02-18T04:05:10.187Z,1013.05
2019-02-18T04:05:45.210Z,1013.02
2019-02-18T04:06:20.418Z,1013.05
2019-02-18T04:06:55.825Z,1012.99
2019-02-18T04:07:31.421Z,1013.01
2019-02-18T04:08:06.504Z,1013.00
2019-02-18T04:08:43.192Z,1013.01
2019-02-18T04:09:17.370Z,1013.03
2019-02-18T04:09:52.740Z,1013.00
2019-02-18T04:10:28.044Z,1013.02
2019-02-18T04:11:03.254Z,1013.02
2019-02-18T04:11:38.680Z,1013.05
2019-02-18T04:12:14.012Z,1013.02
2019-02-18T04:12:49.299Z,1013.05
2019-02-18T04:13:24.611Z,1013.04
2019-02-18T04:14:00.114Z,1013.06
2019-02-18T04:14:35.626Z,1013.05
2019-02-18T04:15:11.014Z,1013.02
2019-02-18T04:15:46.420Z,1013.04
2019-02-18T04:16:21.862Z,1012.98
2019-02-18T04:16:57.152Z,1013.03
2019-02-18T04:17:32.769Z,1013.02
2019-02-18T04:18:08.147Z,1013.04
2019-02-18T04:18:43.360Z,1013.00
2019-02-18T04:19:18.736Z,1013.05
2019-02-18T04:19:54.135Z,1013.05
2019-02-18T04:20:29.343Z,1013.03
2019-02-18T04:21:04.646Z,1013.06
2019-02-18T04:21:40.297Z,1013.08
2019-02-18T04:22:15.782Z,1013.07
2019-02-18T04:22:50.902Z,1013.09
2019-02-18T04:23:26.289Z,1013.09
2019-02-18T04:24:01.818Z,1013.09
2019-02-18T04:24:37.121Z,1013.11
2019-02-18T04:25:12.326Z,1013.11
2019-02-18T04:25:47.842Z,1013.09
2019-02-18T04:26:23.125Z,1013.09
2019-02-18T04:26:58.590Z,1013.10
2019-02-18T04:27:33.710Z,1013.10
2019-02-18T04:28:08.989Z,1013.11
2019-02-18T04:28:44.473Z,1013.09
2019-02-18T04:29:19.861Z,1013.06
2019-02-18T04:29:54.981Z,1013.08
2019-02-18T04:30:30.475Z,1013.07
2019-02-18T04:31:05.809Z,1013.03
2019-02-18T04:31:41.325Z,1013.00
2019-02-18T04:32:16.541Z,1013.02
2019-02-18T04:32:51.957Z,1013.04
2019-02-18T04:33:27.150Z,1013.00
2019-02-18T04:34:02.661Z,1012.96
2019-02-18T04:34:37.976Z,1012.94
2019-02-18T04:35:13.481Z,1012.92
2019-02-18T04:35:48.988Z,1012.95
2019-02-18T04:36:24.588Z,1012.98
2019-02-18T04:36:59.911Z,1012.99
2019-02-18T04:37:35.311Z,1012.97
2019-02-18T04:38:10.811Z,1012.99
2019-02-18T04:38:53.878Z,1012.97
2019-02-18T04:39:21.395Z,1013.00
2019-02-18T04:39:56.747Z,1012.96
2019-02-18T04:40:32.141Z,1012.92
2019-02-18T04:41:07.348Z,1012.97
2019-02-18T04:41:42.438Z,1012.97
2019-02-18T04:42:18.050Z,1012.95
2019-02-18T04:42:53.884Z,1012.96
2019-02-18T04:43:29.269Z,1012.96
2019-02-18T04:44:04.690Z,1012.99
2019-02-18T04:44:40.104Z,1013.00
2019-02-18T04:45:15.728Z,1012.98
2019-02-18T04:45:51.069Z,1012.99
2019-02-18T04:46:26.449Z,1013.00
2019-02-18T04:47:01.780Z,1012.96
2019-02-18T04:47:36.966Z,1012.97
2019-02-18T04:48:12.517Z,1012.98
2019-02-18T04:48:47.796Z,1013.00
2019-02-18T04:49:22.925Z,1013.02
2019-02-18T04:49:58.348Z,1012.99
2019-02-18T04:50:33.640Z,1012.99
2019-02-18T04:51:08.846Z,1013.02
2019-02-18T04:51:44.029Z,1012.99
2019-02-18T04:52:19.323Z,1012.98
2019-02-18T04:52:54.630Z,1013.01
2019-02-18T04:53:30.169Z,1013.01
2019-02-18T04:54:05.351Z,1013.01
2019-02-18T04:54:40.582Z,1013.01
2019-02-18T04:55:15.857Z,1012.97
2019-02-18T04:55:51.178Z,1013.00
2019-02-18T04:56:26.158Z,1012.99
2019-02-18T04:57:01.578Z,1012.97
2019-02-18T04:57:36.973Z,1012.95
2019-02-18T04:58:12.289Z,1012.96
2019-02-18T04:58:47.648Z,1012.94
2019-02-18T04:59:23.004Z,1012.95
2019-02-18T04:59:58.402Z,1012.94
2019-02-18T05:00:33.702Z,1012.95
2019-02-18T05:01:08.987Z,1012.90
2019-02-18T05:01:44.150Z,1012.94
2019-02-18T05:02:19.324Z,1012.91
2019-02-18T05:02:54.630Z,1012.93
2019-02-18T05:03:30.230Z,1012.93
2019-02-18T05:04:05.577Z,1012.91
2019-02-18T05:04:40.925Z,1012.92
2019-02-18T05:05:16.347Z,1012.89
2019-02-18T05:05:51.671Z,1012.91
2019-02-18T05:06:27.311Z,1012.92
2019-02-18T05:07:02.594Z,1012.90
2019-02-18T05:07:37.916Z,1012.88
2019-02-18T05:08:13.100Z,1012.90
2019-02-18T05:08:48.348Z,1012.86
2019-02-18T05:09:23.786Z,1012.86
2019-02-18T05:09:59.062Z,1012.83
2019-02-18T05:10:34.447Z,1012.84
2019-02-18T05:11:09.665Z,1012.87
2019-02-18T05:11:44.971Z,1012.85
2019-02-18T05:12:20.483Z,1012.89
2019-02-18T05:12:56.270Z,1012.85
2019-02-18T05:13:31.584Z,1012.85
2019-02-18T05:14:06.915Z,1012.82
2019-02-18T05:14:42.426Z,1012.85
2019-02-18T05:15:17.850Z,1012.82
2019-02-18T05:15:53.262Z,1012.82
2019-02-18T05:16:28.665Z,1012.81
2019-02-18T05:17:03.878Z,1012.82
2019-02-18T05:17:39.264Z,1012.82
2019-02-18T05:18:14.784Z,1012.79
2019-02-18T05:18:50.276Z,1012.79
2019-02-18T05:19:25.726Z,1012.79
2019-02-18T05:20:00.821Z,1012.78
2019-02-18T05:20:35.950Z,1012.78
2019-02-18T05:21:11.151Z,1012.77
2019-02-18T05:21:46.462Z,1012.77
2019-02-18T05:22:21.637Z,1012.76
2019-02-18T05:22:56.748Z,1012.79
2019-02-18T05:23:32.343Z,1012.75
2019-02-18T05:24:07.792Z,1012.79
2019-02-18T05:24:43.393Z,1012.76
2019-02-18T05:25:18.724Z,1012.75
2019-02-18T05:25:54.411Z,1012.75
2019-02-18T05:26:29.893Z,1012.71
2019-02-18T05:27:05.184Z,1012.71
2019-02-18T05:27:40.515Z,1012.68
2019-02-18T05:28:15.993Z,1012.67
2019-02-18T05:28:51.400Z,1012.66
2019-02-18T05:29:26.887Z,1012.65
2019-02-18T05:30:02.334Z,1012.68
2019-02-18T05:30:37.838Z,1012.67
2019-02-18T05:31:13.143Z,1012.65
2019-02-18T05:31:48.445Z,1012.62
2019-02-18T05:32:24.086Z,1012.66
2019-02-18T05:32:59.483Z,1012.62
2019-02-18T05:33:34.900Z,1012.63
2019-02-18T05:34:10.111Z,1012.60
2019-02-18T05:34:45.439Z,1012.63
2019-02-18T05:35:20.838Z,1012.64
2019-02-18T05:35:56.292Z,1012.64
2019-02-18T05:36:31.691Z,1012.62
2019-02-18T05:37:07.018Z,1012.60
2019-02-18T05:37:42.303Z,1012.61
2019-02-18T05:38:17.607Z,1012.62
2019-02-18T05:38:53.041Z,1012.63
2019-02-18T05:39:28.367Z,1012.57
2019-02-18T05:40:03.662Z,1012.57
2019-02-18T05:40:39.051Z,1012.58
2019-02-18T05:41:14.044Z,1012.57
2019-02-18T05:41:49.550Z,1012.61
2019-02-18T05:42:24.843Z,1012.58
2019-02-18T05:43:00.061Z,1012.59
2019-02-18T05:43:35.439Z,1012.60
2019-02-18T05:44:10.658Z,1012.59
2019-02-18T05:44:46.239Z,1012.60
2019-02-18T05:45:21.566Z,1012.59
2019-02-18T05:45:57.069Z,1012.58
2019-02-18T05:46:32.490Z,1012.62
2019-02-18T05:47:07.920Z,1012.55
2019-02-18T05:47:43.633Z,1012.53
2019-02-18T05:48:18.823Z,1012.55
2019-02-18T05:48:54.246Z,1012.54
2019-02-18T05:49:29.350Z,1012.55
2019-02-18T05:50:04.983Z,1012.53
2019-02-18T05:50:40.060Z,1012.52
2019-02-18T05:51:15.630Z,1012.51
2019-02-18T05:51:51.111Z,1012.51
2019-02-18T05:52:26.641Z,1012.51
2019-02-18T05:53:02.544Z,1012.55
2019-02-18T05:53:37.664Z,1012.54
2019-02-18T05:54:13.047Z,1012.55
2019-02-18T05:54:48.353Z,1012.53
2019-02-18T05:55:23.751Z,1012.53
2019-02-18T05:55:59.369Z,1012.54
2019-02-18T05:56:34.802Z,1012.54
2019-02-18T05:57:10.222Z,1012.55
2019-02-18T05:57:46.039Z,1012.54
2019-02-18T05:58:21.455Z,1012.52
2019-02-18T05:58:56.673Z,1012.56
2019-02-18T05:59:32.207Z,1012.54
2019-02-18T06:00:07.401Z,1012.53
2019-02-18T06:00:42.701Z,1012.56
2019-02-18T06:01:18.281Z,1012.52
2019-02-18T06:01:53.428Z,1012.55
2019-02-18T06:02:28.704Z,1012.54
2019-02-18T06:03:04.125Z,1012.52
2019-02-18T06:03:39.210Z,1012.52
2019-02-18T06:04:14.433Z,1012.51
2019-02-18T06:04:49.508Z,1012.51
2019-02-18T06:05:24.729Z,1012.52
2019-02-18T06:05:59.918Z,1012.52
2019-02-18T06:06:35.119Z,1012.54
2019-02-18T06:07:10.668Z,1012.54
2019-02-18T06:07:46.218Z,1012.57
2019-02-18T06:08:21.498Z,1012.54
2019-02-18T06:08:56.910Z,1012.57
2019-02-18T06:09:32.119Z,1012.52
2019-02-18T06:10:07.546Z,1012.54
2019-02-18T06:10:42.853Z,1012.54
2019-02-18T06:11:18.363Z,1012.54
2019-02-18T06:11:53.739Z,1012.54
2019-02-18T06:12:28.990Z,1012.54
2019-02-18T06:13:04.678Z,1012.57
2019-02-18T06:13:39.929Z,1012.58
2019-02-18T06:14:15.007Z,1012.55
2019-02-18T06:14:50.335Z,1012.56
2019-02-18T06:15:25.534Z,1012.59
2019-02-18T06:16:00.957Z,1012.56
2019-02-18T06:16:36.435Z,1012.56
2019-02-18T06:17:11.857Z,1012.56
2019-02-18T06:17:47.174Z,1012.55
2019-02-18T06:18:22.385Z,1012.56
2019-02-18T06:18:57.665Z,1012.58
2019-02-18T06:19:32.875Z,1012.56
2019-02-18T06:20:08.285Z,1012.60
2019-02-18T06:20:43.617Z,1012.62
2019-02-18T06:21:19.001Z,1012.62
2019-02-18T06:21:54.308Z,1012.61
2019-02-18T06:22:29.783Z,1012.59
2019-02-18T06:23:05.241Z,1012.61
2019-02-18T06:23:40.827Z,1012.60
2019-02-18T06:24:16.056Z,1012.62
2019-02-18T06:24:51.169Z,1012.64
2019-02-18T06:25:26.871Z,1012.61
2019-02-18T06:26:02.170Z,1012.61
2019-02-18T06:26:37.681Z,1012.61
2019-02-18T06:27:12.771Z,1012.61
2019-02-18T06:27:48.296Z,1012.61
2019-02-18T06:28:23.916Z,1012.60
2019-02-18T06:28:59.323Z,1012.60
2019-02-18T06:29:35.806Z,1012.59
2019-02-18T06:30:11.324Z,1012.57
2019-02-18T06:30:46.907Z,1012.59
2019-02-18T06:31:22.340Z,1012.59
2019-02-18T06:31:57.721Z,1012.60
2019-02-18T06:32:32.960Z,1012.60
2019-02-18T06:33:08.334Z,1012.61
2019-02-18T06:33:43.687Z,1012.61
2019-02-18T06:34:18.890Z,1012.60
2019-02-18T06:34:54.124Z,1012.58
2019-02-18T06:35:29.818Z,1012.58
2019-02-18T06:36:05.230Z,1012.58
2019-02-18T06:36:40.915Z,1012.58
2019-02-18T06:37:16.231Z,1012.60
2019-02-18T06:37:51.516Z,1012.61
2019-02-18T06:38:26.644Z,1012.62
2019-02-18T06:39:01.880Z,1012.59
2019-02-18T06:39:41.421Z,1012.58
2019-02-18T06:40:12.626Z,1012.61
2019-02-18T06:40:48.266Z,1012.65
2019-02-18T06:41:23.547Z,1012.65
2019-02-18T06:41:59.072Z,1012.65
2019-02-18T06:42:34.563Z,1012.64
2019-02-18T06:43:10.190Z,1012.64
2019-02-18T06:43:45.482Z,1012.64
2019-02-18T06:44:20.744Z,1012.65
2019-02-18T06:44:55.927Z,1012.64
2019-02-18T06:45:31.051Z,1012.69
2019-02-18T06:46:06.253Z,1012.66
2019-02-18T06:46:41.680Z,1012.64
2019-02-18T06:47:17.092Z,1012.62
2019-02-18T06:47:52.810Z,1012.64
2019-02-18T06:48:28.097Z,1012.63
2019-02-18T06:49:03.554Z,1012.68
2019-02-18T06:49:38.880Z,1012.67
2019-02-18T06:50:14.293Z,1012.66
2019-02-18T06:50:49.667Z,1012.67
2019-02-18T06:51:24.975Z,1012.67
2019-02-18T06:52:00.088Z,1012.71
2019-02-18T06:52:35.401Z,1012.69
2019-02-18T06:53:10.780Z,1012.71
2019-02-18T06:53:46.299Z,1012.70
2019-02-18T06:54:21.695Z,1012.70
2019-02-18T06:54:57.056Z,1012.73
2019-02-18T06:55:32.537Z,1012.72
2019-02-18T06:56:07.745Z,1012.72
2019-02-18T06:56:43.432Z,1012.74
2019-02-18T06:57:18.764Z,1012.73
2019-02-18T06:57:54.734Z,1012.73
2019-02-18T06:58:29.860Z,1012.76
2019-02-18T06:59:04.950Z,1012.76
2019-02-18T06:59:40.473Z,1012.75
2019-02-18T07:00:16.192Z,1012.77
2019-02-18T07:00:51.437Z,1012.75
2019-02-18T07:01:26.911Z,1012.75
2019-02-18T07:02:02.430Z,1012.77
2019-02-18T07:02:37.728Z,1012.76
2019-02-18T07:03:13.148Z,1012.77
2019-02-18T07:03:48.440Z,1012.79
2019-02-18T07:04:23.846Z,1012.82
2019-02-18T07:04:59.439Z,1012.80
2019-02-18T07:05:34.770Z,1012.80
2019-02-18T07:06:10.120Z,1012.79
2019-02-18T07:06:45.678Z,1012.79
2019-02-18T07:07:21.060Z,1012.79
2019-02-18T07:07:56.472Z,1012.79